sensor_id;sensor_type;location;lat;lon;timestamp;P1;durP1;ratioP1;P2;durP2;ratioP2
5961;SDS011;3007;50.770;0.250;2023-02-16T00:01:21;34.23;;;19.20;;
5961;SDS011;3007;50.770;0.250;2023-02-16T00:03:50;26.47;;;18.60;;
5961;SDS011;3007;50.770;0.250;2023-02-16T00:06:18;30.23;;;19.43;;
5961;SDS011;3007;50.770;0.250;2023-02-16T00:08:46;29.37;;;18.40;;
5961;SDS011;3007;50.770;0.250;2023-02-16T00:11:15;30.50;;;19.30;;
5961;SDS011;3007;50.770;0.250;2023-02-16T00:14:04;27.70;;;17.97;;
5961;SDS011;3007;50.770;0.250;2023-02-16T00:16:34;28.07;;;19.23;;
5961;SDS011;3007;50.770;0.250;2023-02-16T00:19:01;27.43;;;19.23;;
5961;SDS011;3007;50.770;0.250;2023-02-16T00:21:37;30.23;;;17.93;;
5961;SDS011;3007;50.770;0.250;2023-02-16T00:24:04;30.43;;;20.27;;
5961;SDS011;3007;50.770;0.250;2023-02-16T00:26:31;30.67;;;19.73;;
5961;SDS011;3007;50.770;0.250;2023-02-16T00:29:00;33.77;;;20.03;;
5961;SDS011;3007;50.770;0.250;2023-02-16T00:31:28;32.97;;;19.70;;
5961;SDS011;3007;50.770;0.250;2023-02-16T00:33:57;28.80;;;20.17;;
5961;SDS011;3007;50.770;0.250;2023-02-16T00:36:24;31.80;;;20.70;;
5961;SDS011;3007;50.770;0.250;2023-02-16T00:38:51;33.60;;;20.37;;
5961;SDS011;3007;50.770;0.250;2023-02-16T00:41:18;30.50;;;19.30;;
5961;SDS011;3007;50.770;0.250;2023-02-16T00:44:07;34.73;;;21.23;;
5961;SDS011;3007;50.770;0.250;2023-02-16T00:46:41;31.00;;;20.50;;
5961;SDS011;3007;50.770;0.250;2023-02-16T00:49:11;33.87;;;21.27;;
5961;SDS011;3007;50.770;0.250;2023-02-16T00:51:39;34.40;;;22.03;;
5961;SDS011;3007;50.770;0.250;2023-02-16T00:54:06;36.87;;;24.13;;
5961;SDS011;3007;50.770;0.250;2023-02-16T00:56:33;34.70;;;24.00;;
5961;SDS011;3007;50.770;0.250;2023-02-16T00:59:01;34.23;;;21.80;;
5961;SDS011;3007;50.770;0.250;2023-02-16T01:01:30;35.43;;;23.20;;
5961;SDS011;3007;50.770;0.250;2023-02-16T01:04:00;33.67;;;23.00;;
5961;SDS011;3007;50.770;0.250;2023-02-16T01:06:29;37.33;;;22.33;;
5961;SDS011;3007;50.770;0.250;2023-02-16T01:09:15;42.93;;;25.17;;
5961;SDS011;3007;50.770;0.250;2023-02-16T01:12:00;34.43;;;23.43;;
5961;SDS011;3007;50.770;0.250;2023-02-16T01:14:29;34.23;;;22.47;;
5961;SDS011;3007;50.770;0.250;2023-02-16T01:16:58;35.73;;;22.90;;
5961;SDS011;3007;50.770;0.250;2023-02-16T01:19:26;41.73;;;23.77;;
5961;SDS011;3007;50.770;0.250;2023-02-16T01:21:53;36.03;;;24.83;;
5961;SDS011;3007;50.770;0.250;2023-02-16T01:24:20;34.83;;;24.03;;
5961;SDS011;3007;50.770;0.250;2023-02-16T01:26:48;39.30;;;25.33;;
5961;SDS011;3007;50.770;0.250;2023-02-16T01:29:16;37.60;;;25.30;;
5961;SDS011;3007;50.770;0.250;2023-02-16T01:31:45;39.80;;;25.73;;
5961;SDS011;3007;50.770;0.250;2023-02-16T01:34:13;42.43;;;25.73;;
5961;SDS011;3007;50.770;0.250;2023-02-16T01:36:42;41.43;;;25.17;;
5961;SDS011;3007;50.770;0.250;2023-02-16T01:39:10;41.63;;;26.73;;
5961;SDS011;3007;50.770;0.250;2023-02-16T01:41:55;38.63;;;24.77;;
5961;SDS011;3007;50.770;0.250;2023-02-16T01:44:32;41.87;;;26.70;;
5961;SDS011;3007;50.770;0.250;2023-02-16T01:47:04;45.23;;;27.23;;
5961;SDS011;3007;50.770;0.250;2023-02-16T01:49:38;45.07;;;26.47;;
5961;SDS011;3007;50.770;0.250;2023-02-16T01:52:10;38.47;;;24.67;;
5961;SDS011;3007;50.770;0.250;2023-02-16T01:54:45;49.23;;;27.57;;
5961;SDS011;3007;50.770;0.250;2023-02-16T01:57:20;39.20;;;25.43;;
5961;SDS011;3007;50.770;0.250;2023-02-16T02:00:00;38.03;;;24.07;;
5961;SDS011;3007;50.770;0.250;2023-02-16T02:02:33;40.47;;;24.13;;
5961;SDS011;3007;50.770;0.250;2023-02-16T02:05:04;51.47;;;25.77;;
5961;SDS011;3007;50.770;0.250;2023-02-16T02:07:53;41.60;;;23.27;;
5961;SDS011;3007;50.770;0.250;2023-02-16T02:10:26;43.00;;;24.07;;
5961;SDS011;3007;50.770;0.250;2023-02-16T02:13:01;43.03;;;23.47;;
5961;SDS011;3007;50.770;0.250;2023-02-16T02:15:32;45.57;;;24.93;;
5961;SDS011;3007;50.770;0.250;2023-02-16T02:18:00;40.93;;;25.13;;
5961;SDS011;3007;50.770;0.250;2023-02-16T02:20:30;51.03;;;26.03;;
5961;SDS011;3007;50.770;0.250;2023-02-16T02:23:39;46.63;;;26.33;;
5961;SDS011;3007;50.770;0.250;2023-02-16T02:29:40;49.80;;;26.87;;
5961;SDS011;3007;50.770;0.250;2023-02-16T02:32:21;47.57;;;26.33;;
5961;SDS011;3007;50.770;0.250;2023-02-16T02:34:59;48.97;;;25.00;;
5961;SDS011;3007;50.770;0.250;2023-02-16T02:37:38;40.97;;;23.13;;
5961;SDS011;3007;50.770;0.250;2023-02-16T02:40:10;49.70;;;24.27;;
5961;SDS011;3007;50.770;0.250;2023-02-16T02:42:45;42.37;;;22.47;;
5961;SDS011;3007;50.770;0.250;2023-02-16T02:45:20;42.07;;;22.10;;
5961;SDS011;3007;50.770;0.250;2023-02-16T02:47:50;41.70;;;21.90;;
5961;SDS011;3007;50.770;0.250;2023-02-16T02:53:34;49.50;;;19.87;;
5961;SDS011;3007;50.770;0.250;2023-02-16T02:56:04;37.23;;;18.50;;
5961;SDS011;3007;50.770;0.250;2023-02-16T02:58:52;29.57;;;16.70;;
5961;SDS011;3007;50.770;0.250;2023-02-16T03:01:40;24.70;;;15.33;;
5961;SDS011;3007;50.770;0.250;2023-02-16T03:04:11;21.73;;;12.57;;
5961;SDS011;3007;50.770;0.250;2023-02-16T03:06:42;29.23;;;13.97;;
5961;SDS011;3007;50.770;0.250;2023-02-16T03:09:13;16.47;;;10.03;;
5961;SDS011;3007;50.770;0.250;2023-02-16T03:11:41;21.03;;;11.80;;
5961;SDS011;3007;50.770;0.250;2023-02-16T03:14:29;19.30;;;11.23;;
5961;SDS011;3007;50.770;0.250;2023-02-16T03:17:00;23.47;;;11.70;;
5961;SDS011;3007;50.770;0.250;2023-02-16T03:19:49;18.87;;;10.43;;
5961;SDS011;3007;50.770;0.250;2023-02-16T03:22:34;16.03;;;9.33;;
5961;SDS011;3007;50.770;0.250;2023-02-16T03:25:20;16.23;;;9.77;;
5961;SDS011;3007;50.770;0.250;2023-02-16T03:28:07;17.73;;;8.90;;
5961;SDS011;3007;50.770;0.250;2023-02-16T03:30:55;15.77;;;7.60;;
5961;SDS011;3007;50.770;0.250;2023-02-16T03:33:23;11.40;;;7.33;;
5961;SDS011;3007;50.770;0.250;2023-02-16T03:35:51;15.50;;;7.57;;
5961;SDS011;3007;50.770;0.250;2023-02-16T03:38:19;10.57;;;6.47;;
5961;SDS011;3007;50.770;0.250;2023-02-16T03:40:46;12.20;;;6.10;;
5961;SDS011;3007;50.770;0.250;2023-02-16T03:43:15;12.53;;;6.70;;
5961;SDS011;3007;50.770;0.250;2023-02-16T03:45:42;11.87;;;6.23;;
5961;SDS011;3007;50.770;0.250;2023-02-16T03:48:11;8.97;;;6.07;;
5961;SDS011;3007;50.770;0.250;2023-02-16T03:50:39;17.20;;;5.77;;
5961;SDS011;3007;50.770;0.250;2023-02-16T03:53:06;8.97;;;5.90;;
5961;SDS011;3007;50.770;0.250;2023-02-16T03:55:33;9.40;;;5.67;;
5961;SDS011;3007;50.770;0.250;2023-02-16T03:58:02;8.97;;;5.37;;
5961;SDS011;3007;50.770;0.250;2023-02-16T04:00:30;6.53;;;4.53;;
5961;SDS011;3007;50.770;0.250;2023-02-16T04:02:58;8.90;;;4.33;;
5961;SDS011;3007;50.770;0.250;2023-02-16T04:05:26;7.80;;;4.47;;
5961;SDS011;3007;50.770;0.250;2023-02-16T04:07:53;9.53;;;3.83;;
5961;SDS011;3007;50.770;0.250;2023-02-16T04:10:20;7.93;;;3.63;;
5961;SDS011;3007;50.770;0.250;2023-02-16T04:12:48;5.57;;;2.73;;
5961;SDS011;3007;50.770;0.250;2023-02-16T04:15:15;11.00;;;2.73;;
5961;SDS011;3007;50.770;0.250;2023-02-16T04:17:43;4.70;;;2.10;;
5961;SDS011;3007;50.770;0.250;2023-02-16T04:20:12;3.37;;;2.13;;
5961;SDS011;3007;50.770;0.250;2023-02-16T04:22:42;5.00;;;1.83;;
5961;SDS011;3007;50.770;0.250;2023-02-16T04:25:10;3.47;;;1.83;;
5961;SDS011;3007;50.770;0.250;2023-02-16T04:27:37;6.13;;;1.77;;
5961;SDS011;3007;50.770;0.250;2023-02-16T04:30:09;3.40;;;1.60;;
5961;SDS011;3007;50.770;0.250;2023-02-16T04:32:37;2.37;;;1.67;;
5961;SDS011;3007;50.770;0.250;2023-02-16T04:35:05;3.23;;;1.70;;
5961;SDS011;3007;50.770;0.250;2023-02-16T04:37:33;5.87;;;1.70;;
5961;SDS011;3007;50.770;0.250;2023-02-16T04:40:02;4.60;;;1.50;;
5961;SDS011;3007;50.770;0.250;2023-02-16T04:42:29;3.87;;;1.20;;
5961;SDS011;3007;50.770;0.250;2023-02-16T04:44:56;2.63;;;1.93;;
5961;SDS011;3007;50.770;0.250;2023-02-16T04:47:23;4.33;;;1.87;;
5961;SDS011;3007;50.770;0.250;2023-02-16T04:49:51;2.47;;;1.67;;
5961;SDS011;3007;50.770;0.250;2023-02-16T04:52:18;4.67;;;1.90;;
5961;SDS011;3007;50.770;0.250;2023-02-16T04:54:45;2.60;;;1.50;;
5961;SDS011;3007;50.770;0.250;2023-02-16T04:57:13;4.30;;;1.70;;
5961;SDS011;3007;50.770;0.250;2023-02-16T04:59:41;2.83;;;1.50;;
5961;SDS011;3007;50.770;0.250;2023-02-16T05:02:08;2.30;;;1.10;;
5961;SDS011;3007;50.770;0.250;2023-02-16T05:04:35;2.43;;;1.23;;
5961;SDS011;3007;50.770;0.250;2023-02-16T05:07:02;5.70;;;1.20;;
5961;SDS011;3007;50.770;0.250;2023-02-16T05:09:29;1.77;;;1.20;;
5961;SDS011;3007;50.770;0.250;2023-02-16T05:11:56;3.77;;;1.03;;
5961;SDS011;3007;50.770;0.250;2023-02-16T05:14:42;2.33;;;0.90;;
5961;SDS011;3007;50.770;0.250;2023-02-16T05:17:10;2.83;;;1.67;;
5961;SDS011;3007;50.770;0.250;2023-02-16T05:19:39;2.40;;;1.70;;
5961;SDS011;3007;50.770;0.250;2023-02-16T05:22:06;4.27;;;2.50;;
5961;SDS011;3007;50.770;0.250;2023-02-16T05:24:34;5.60;;;2.23;;
5961;SDS011;3007;50.770;0.250;2023-02-16T05:27:02;4.07;;;2.00;;
5961;SDS011;3007;50.770;0.250;2023-02-16T05:29:30;7.83;;;4.97;;
5961;SDS011;3007;50.770;0.250;2023-02-16T05:31:58;11.40;;;6.80;;
5961;SDS011;3007;50.770;0.250;2023-02-16T05:34:25;13.67;;;9.70;;
5961;SDS011;3007;50.770;0.250;2023-02-16T05:36:52;16.43;;;10.23;;
5961;SDS011;3007;50.770;0.250;2023-02-16T05:39:20;16.80;;;11.10;;
5961;SDS011;3007;50.770;0.250;2023-02-16T05:41:47;15.63;;;9.93;;
5961;SDS011;3007;50.770;0.250;2023-02-16T05:44:15;14.80;;;10.70;;
5961;SDS011;3007;50.770;0.250;2023-02-16T05:46:42;20.73;;;10.13;;
5961;SDS011;3007;50.770;0.250;2023-02-16T05:49:12;21.37;;;11.13;;
5961;SDS011;3007;50.770;0.250;2023-02-16T05:51:40;16.83;;;11.50;;
5961;SDS011;3007;50.770;0.250;2023-02-16T05:54:07;20.97;;;12.03;;
5961;SDS011;3007;50.770;0.250;2023-02-16T05:56:41;18.07;;;11.77;;
5961;SDS011;3007;50.770;0.250;2023-02-16T05:59:08;20.70;;;11.97;;
5961;SDS011;3007;50.770;0.250;2023-02-16T06:01:35;19.63;;;12.00;;
5961;SDS011;3007;50.770;0.250;2023-02-16T06:04:05;21.00;;;11.80;;
5961;SDS011;3007;50.770;0.250;2023-02-16T06:06:34;23.70;;;13.50;;
5961;SDS011;3007;50.770;0.250;2023-02-16T06:09:02;23.80;;;12.40;;
5961;SDS011;3007;50.770;0.250;2023-02-16T06:11:29;20.10;;;12.47;;
5961;SDS011;3007;50.770;0.250;2023-02-16T06:14:04;23.53;;;14.67;;
5961;SDS011;3007;50.770;0.250;2023-02-16T06:16:33;24.50;;;13.70;;
5961;SDS011;3007;50.770;0.250;2023-02-16T06:19:01;18.43;;;13.30;;
5961;SDS011;3007;50.770;0.250;2023-02-16T06:21:28;15.33;;;12.07;;
5961;SDS011;3007;50.770;0.250;2023-02-16T06:23:57;22.67;;;12.63;;
5961;SDS011;3007;50.770;0.250;2023-02-16T06:26:24;18.70;;;11.50;;
5961;SDS011;3007;50.770;0.250;2023-02-16T06:28:51;20.60;;;12.77;;
5961;SDS011;3007;50.770;0.250;2023-02-16T06:31:18;18.40;;;12.43;;
5961;SDS011;3007;50.770;0.250;2023-02-16T06:33:46;19.30;;;11.73;;
5961;SDS011;3007;50.770;0.250;2023-02-16T06:36:13;16.67;;;10.90;;
5961;SDS011;3007;50.770;0.250;2023-02-16T06:38:40;15.13;;;10.23;;
5961;SDS011;3007;50.770;0.250;2023-02-16T06:41:09;14.57;;;9.47;;
5961;SDS011;3007;50.770;0.250;2023-02-16T06:43:36;15.50;;;8.47;;
5961;SDS011;3007;50.770;0.250;2023-02-16T06:46:03;12.17;;;9.43;;
5961;SDS011;3007;50.770;0.250;2023-02-16T06:48:30;15.60;;;10.03;;
5961;SDS011;3007;50.770;0.250;2023-02-16T06:50:57;17.07;;;10.57;;
5961;SDS011;3007;50.770;0.250;2023-02-16T06:53:26;15.13;;;10.90;;
5961;SDS011;3007;50.770;0.250;2023-02-16T06:55:53;15.60;;;10.20;;
5961;SDS011;3007;50.770;0.250;2023-02-16T06:58:21;19.10;;;11.50;;
5961;SDS011;3007;50.770;0.250;2023-02-16T07:00:48;19.93;;;10.77;;
5961;SDS011;3007;50.770;0.250;2023-02-16T07:03:15;15.87;;;10.17;;
5961;SDS011;3007;50.770;0.250;2023-02-16T07:05:42;14.40;;;9.27;;
5961;SDS011;3007;50.770;0.250;2023-02-16T07:08:09;14.03;;;8.70;;
5961;SDS011;3007;50.770;0.250;2023-02-16T07:10:36;14.47;;;8.53;;
5961;SDS011;3007;50.770;0.250;2023-02-16T07:13:03;12.70;;;7.30;;
5961;SDS011;3007;50.770;0.250;2023-02-16T07:15:31;9.87;;;6.40;;
5961;SDS011;3007;50.770;0.250;2023-02-16T07:17:58;16.97;;;7.73;;
5961;SDS011;3007;50.770;0.250;2023-02-16T07:20:25;13.13;;;6.90;;
5961;SDS011;3007;50.770;0.250;2023-02-16T07:22:52;14.80;;;6.67;;
5961;SDS011;3007;50.770;0.250;2023-02-16T07:25:19;17.93;;;8.67;;
5961;SDS011;3007;50.770;0.250;2023-02-16T07:27:47;22.90;;;9.50;;
5961;SDS011;3007;50.770;0.250;2023-02-16T07:30:15;18.80;;;9.93;;
5961;SDS011;3007;50.770;0.250;2023-02-16T07:32:43;24.47;;;12.17;;
5961;SDS011;3007;50.770;0.250;2023-02-16T07:35:10;24.13;;;14.43;;
5961;SDS011;3007;50.770;0.250;2023-02-16T07:37:37;26.07;;;15.00;;
5961;SDS011;3007;50.770;0.250;2023-02-16T07:40:04;29.13;;;16.50;;
5961;SDS011;3007;50.770;0.250;2023-02-16T07:42:32;30.30;;;16.73;;
5961;SDS011;3007;50.770;0.250;2023-02-16T07:44:59;33.60;;;17.83;;
5961;SDS011;3007;50.770;0.250;2023-02-16T07:47:26;33.83;;;19.13;;
5961;SDS011;3007;50.770;0.250;2023-02-16T07:49:54;36.80;;;19.40;;
5961;SDS011;3007;50.770;0.250;2023-02-16T07:52:21;39.72;;;20.00;;
5961;SDS011;3007;50.770;0.250;2023-02-16T07:54:49;31.27;;;17.03;;
5961;SDS011;3007;50.770;0.250;2023-02-16T07:57:16;28.17;;;16.70;;
5961;SDS011;3007;50.770;0.250;2023-02-16T07:59:43;32.63;;;17.70;;
5961;SDS011;3007;50.770;0.250;2023-02-16T08:02:13;29.80;;;17.03;;
5961;SDS011;3007;50.770;0.250;2023-02-16T08:04:41;33.93;;;16.57;;
5961;SDS011;3007;50.770;0.250;2023-02-16T08:07:11;32.97;;;15.63;;
5961;SDS011;3007;50.770;0.250;2023-02-16T08:09:38;31.90;;;15.67;;
5961;SDS011;3007;50.770;0.250;2023-02-16T08:12:08;30.43;;;14.57;;
5961;SDS011;3007;50.770;0.250;2023-02-16T08:14:35;22.63;;;13.77;;
5961;SDS011;3007;50.770;0.250;2023-02-16T08:17:03;28.77;;;13.40;;
5961;SDS011;3007;50.770;0.250;2023-02-16T08:19:31;28.20;;;11.23;;
5961;SDS011;3007;50.770;0.250;2023-02-16T08:21:59;19.17;;;10.40;;
5961;SDS011;3007;50.770;0.250;2023-02-16T08:24:28;22.10;;;10.40;;
5961;SDS011;3007;50.770;0.250;2023-02-16T08:26:55;18.93;;;9.87;;
5961;SDS011;3007;50.770;0.250;2023-02-16T08:29:22;20.20;;;8.93;;
5961;SDS011;3007;50.770;0.250;2023-02-16T08:31:49;17.43;;;8.27;;
5961;SDS011;3007;50.770;0.250;2023-02-16T08:34:17;19.40;;;8.00;;
5961;SDS011;3007;50.770;0.250;2023-02-16T08:36:46;15.10;;;7.57;;
5961;SDS011;3007;50.770;0.250;2023-02-16T08:39:18;22.90;;;7.53;;
5961;SDS011;3007;50.770;0.250;2023-02-16T08:41:48;13.50;;;7.47;;
5961;SDS011;3007;50.770;0.250;2023-02-16T08:44:16;12.77;;;6.43;;
5961;SDS011;3007;50.770;0.250;2023-02-16T08:46:45;13.80;;;6.77;;
5961;SDS011;3007;50.770;0.250;2023-02-16T08:49:13;16.67;;;6.50;;
5961;SDS011;3007;50.770;0.250;2023-02-16T08:51:43;10.37;;;6.43;;
5961;SDS011;3007;50.770;0.250;2023-02-16T08:54:13;12.60;;;6.90;;
5961;SDS011;3007;50.770;0.250;2023-02-16T08:56:42;12.77;;;7.27;;
5961;SDS011;3007;50.770;0.250;2023-02-16T08:59:13;17.67;;;7.67;;
5961;SDS011;3007;50.770;0.250;2023-02-16T09:01:41;18.77;;;9.03;;
5961;SDS011;3007;50.770;0.250;2023-02-16T09:04:09;21.63;;;8.87;;
5961;SDS011;3007;50.770;0.250;2023-02-16T09:06:37;20.27;;;9.47;;
5961;SDS011;3007;50.770;0.250;2023-02-16T09:09:05;20.33;;;8.83;;
5961;SDS011;3007;50.770;0.250;2023-02-16T09:11:35;17.87;;;8.53;;
5961;SDS011;3007;50.770;0.250;2023-02-16T09:14:02;13.40;;;7.60;;
5961;SDS011;3007;50.770;0.250;2023-02-16T09:16:32;17.23;;;7.63;;
5961;SDS011;3007;50.770;0.250;2023-02-16T09:19:02;19.73;;;6.80;;
5961;SDS011;3007;50.770;0.250;2023-02-16T09:21:29;11.83;;;6.50;;
5961;SDS011;3007;50.770;0.250;2023-02-16T09:23:57;15.57;;;7.37;;
5961;SDS011;3007;50.770;0.250;2023-02-16T09:26:29;14.67;;;6.87;;
5961;SDS011;3007;50.770;0.250;2023-02-16T09:28:57;11.40;;;7.07;;
5961;SDS011;3007;50.770;0.250;2023-02-16T09:31:25;14.20;;;7.30;;
5961;SDS011;3007;50.770;0.250;2023-02-16T09:33:56;12.97;;;6.80;;
5961;SDS011;3007;50.770;0.250;2023-02-16T09:36:26;9.20;;;6.00;;
5961;SDS011;3007;50.770;0.250;2023-02-16T09:38:54;13.53;;;6.70;;
5961;SDS011;3007;50.770;0.250;2023-02-16T09:41:27;12.40;;;7.30;;
5961;SDS011;3007;50.770;0.250;2023-02-16T09:43:58;10.37;;;7.43;;
5961;SDS011;3007;50.770;0.250;2023-02-16T09:46:29;12.43;;;8.00;;
5961;SDS011;3007;50.770;0.250;2023-02-16T09:48:58;14.67;;;8.60;;
5961;SDS011;3007;50.770;0.250;2023-02-16T09:51:30;15.70;;;8.87;;
5961;SDS011;3007;50.770;0.250;2023-02-16T09:54:04;16.17;;;8.53;;
5961;SDS011;3007;50.770;0.250;2023-02-16T09:56:42;17.97;;;9.30;;
5961;SDS011;3007;50.770;0.250;2023-02-16T09:59:23;21.37;;;9.47;;
5961;SDS011;3007;50.770;0.250;2023-02-16T10:02:06;19.83;;;8.70;;
5961;SDS011;3007;50.770;0.250;2023-02-16T10:04:49;14.17;;;8.17;;
5961;SDS011;3007;50.770;0.250;2023-02-16T10:07:30;13.47;;;8.50;;
5961;SDS011;3007;50.770;0.250;2023-02-16T10:10:06;20.40;;;8.93;;
5961;SDS011;3007;50.770;0.250;2023-02-16T10:12:39;15.20;;;8.00;;
5961;SDS011;3007;50.770;0.250;2023-02-16T10:15:12;19.33;;;9.13;;
5961;SDS011;3007;50.770;0.250;2023-02-16T10:17:44;15.37;;;8.20;;
5961;SDS011;3007;50.770;0.250;2023-02-16T10:20:16;17.90;;;8.00;;
5961;SDS011;3007;50.770;0.250;2023-02-16T10:22:50;19.40;;;8.63;;
5961;SDS011;3007;50.770;0.250;2023-02-16T10:25:22;17.30;;;8.03;;
5961;SDS011;3007;50.770;0.250;2023-02-16T10:27:56;19.60;;;8.30;;
5961;SDS011;3007;50.770;0.250;2023-02-16T10:30:30;14.60;;;8.13;;
5961;SDS011;3007;50.770;0.250;2023-02-16T10:32:58;15.70;;;7.80;;
5961;SDS011;3007;50.770;0.250;2023-02-16T10:35:35;14.30;;;7.57;;
5961;SDS011;3007;50.770;0.250;2023-02-16T10:38:11;17.10;;;8.40;;
5961;SDS011;3007;50.770;0.250;2023-02-16T10:40:49;13.03;;;7.03;;
5961;SDS011;3007;50.770;0.250;2023-02-16T10:43:21;17.50;;;7.37;;
5961;SDS011;3007;50.770;0.250;2023-02-16T10:46:00;14.60;;;7.50;;
5961;SDS011;3007;50.770;0.250;2023-02-16T10:48:29;13.30;;;6.30;;
5961;SDS011;3007;50.770;0.250;2023-02-16T10:50:57;14.03;;;6.73;;
5961;SDS011;3007;50.770;0.250;2023-02-16T10:53:35;11.37;;;6.40;;
5961;SDS011;3007;50.770;0.250;2023-02-16T10:59:04;12.60;;;4.20;;
5961;SDS011;3007;50.770;0.250;2023-02-16T11:01:34;10.50;;;3.87;;
5961;SDS011;3007;50.770;0.250;2023-02-16T11:04:03;7.60;;;3.13;;
5961;SDS011;3007;50.770;0.250;2023-02-16T11:06:32;5.87;;;3.13;;
5961;SDS011;3007;50.770;0.250;2023-02-16T11:08:59;6.43;;;2.47;;
5961;SDS011;3007;50.770;0.250;2023-02-16T11:11:34;6.43;;;2.87;;
5961;SDS011;3007;50.770;0.250;2023-02-16T11:14:04;6.87;;;3.20;;
5961;SDS011;3007;50.770;0.250;2023-02-16T11:16:33;9.10;;;3.30;;
5961;SDS011;3007;50.770;0.250;2023-02-16T11:19:02;8.90;;;3.40;;
5961;SDS011;3007;50.770;0.250;2023-02-16T11:21:43;13.47;;;4.23;;
5961;SDS011;3007;50.770;0.250;2023-02-16T11:24:12;13.97;;;3.90;;
5961;SDS011;3007;50.770;0.250;2023-02-16T11:26:57;8.67;;;3.93;;
5961;SDS011;3007;50.770;0.250;2023-02-16T11:29:26;8.73;;;4.00;;
5961;SDS011;3007;50.770;0.250;2023-02-16T11:31:55;11.23;;;3.80;;
5961;SDS011;3007;50.770;0.250;2023-02-16T11:34:26;10.73;;;4.20;;
5961;SDS011;3007;50.770;0.250;2023-02-16T11:37:02;13.33;;;4.13;;
5961;SDS011;3007;50.770;0.250;2023-02-16T11:39:32;13.37;;;4.37;;
5961;SDS011;3007;50.770;0.250;2023-02-16T11:42:03;16.70;;;4.50;;
5961;SDS011;3007;50.770;0.250;2023-02-16T11:44:32;15.77;;;5.40;;
5961;SDS011;3007;50.770;0.250;2023-02-16T11:47:02;12.70;;;4.20;;
5961;SDS011;3007;50.770;0.250;2023-02-16T11:49:32;13.77;;;4.30;;
5961;SDS011;3007;50.770;0.250;2023-02-16T11:52:04;11.47;;;3.83;;
5961;SDS011;3007;50.770;0.250;2023-02-16T11:54:47;12.67;;;4.80;;
5961;SDS011;3007;50.770;0.250;2023-02-16T11:57:21;10.77;;;3.57;;
5961;SDS011;3007;50.770;0.250;2023-02-16T11:59:49;13.23;;;4.33;;
5961;SDS011;3007;50.770;0.250;2023-02-16T12:02:25;11.93;;;4.00;;
5961;SDS011;3007;50.770;0.250;2023-02-16T12:05:16;10.77;;;4.43;;
5961;SDS011;3007;50.770;0.250;2023-02-16T12:07:53;12.63;;;5.37;;
5961;SDS011;3007;50.770;0.250;2023-02-16T12:10:58;15.33;;;4.10;;
5961;SDS011;3007;50.770;0.250;2023-02-16T12:13:35;13.50;;;4.00;;
5961;SDS011;3007;50.770;0.250;2023-02-16T12:16:13;11.80;;;3.67;;
5961;SDS011;3007;50.770;0.250;2023-02-16T12:18:53;6.90;;;4.13;;
5961;SDS011;3007;50.770;0.250;2023-02-16T12:21:33;10.53;;;3.57;;
5961;SDS011;3007;50.770;0.250;2023-02-16T12:24:09;12.00;;;3.70;;
5961;SDS011;3007;50.770;0.250;2023-02-16T12:26:46;11.20;;;3.87;;
5961;SDS011;3007;50.770;0.250;2023-02-16T12:29:20;13.17;;;3.90;;
5961;SDS011;3007;50.770;0.250;2023-02-16T12:34:49;10.43;;;3.67;;
5961;SDS011;3007;50.770;0.250;2023-02-16T12:37:29;9.87;;;3.37;;
5961;SDS011;3007;50.770;0.250;2023-02-16T12:40:08;12.33;;;3.93;;
5961;SDS011;3007;50.770;0.250;2023-02-16T12:42:46;8.53;;;3.67;;
5961;SDS011;3007;50.770;0.250;2023-02-16T12:45:27;15.73;;;4.27;;
5961;SDS011;3007;50.770;0.250;2023-02-16T12:47:59;13.60;;;3.63;;
5961;SDS011;3007;50.770;0.250;2023-02-16T12:50:33;13.47;;;3.90;;
5961;SDS011;3007;50.770;0.250;2023-02-16T12:53:03;13.10;;;3.57;;
5961;SDS011;3007;50.770;0.250;2023-02-16T12:55:37;11.57;;;4.13;;
5961;SDS011;3007;50.770;0.250;2023-02-16T12:58:13;12.10;;;3.27;;
5961;SDS011;3007;50.770;0.250;2023-02-16T13:00:45;11.73;;;3.27;;
5961;SDS011;3007;50.770;0.250;2023-02-16T13:03:25;15.67;;;3.97;;
5961;SDS011;3007;50.770;0.250;2023-02-16T13:06:03;13.20;;;3.10;;
5961;SDS011;3007;50.770;0.250;2023-02-16T13:08:38;11.53;;;3.40;;
5961;SDS011;3007;50.770;0.250;2023-02-16T13:11:15;11.17;;;3.20;;
5961;SDS011;3007;50.770;0.250;2023-02-16T13:13:45;11.77;;;3.50;;
5961;SDS011;3007;50.770;0.250;2023-02-16T13:16:14;12.73;;;3.97;;
5961;SDS011;3007;50.770;0.250;2023-02-16T13:18:45;14.30;;;4.33;;
5961;SDS011;3007;50.770;0.250;2023-02-16T13:21:23;17.83;;;4.10;;
5961;SDS011;3007;50.770;0.250;2023-02-16T13:24:11;9.23;;;3.37;;
5961;SDS011;3007;50.770;0.250;2023-02-16T13:26:48;9.30;;;3.10;;
5961;SDS011;3007;50.770;0.250;2023-02-16T13:32:36;14.80;;;3.87;;
5961;SDS011;3007;50.770;0.250;2023-02-16T13:35:24;10.87;;;3.53;;
5961;SDS011;3007;50.770;0.250;2023-02-16T13:38:28;13.67;;;3.10;;
5961;SDS011;3007;50.770;0.250;2023-02-16T13:41:15;10.47;;;3.03;;
5961;SDS011;3007;50.770;0.250;2023-02-16T13:43:58;7.60;;;2.50;;
5961;SDS011;3007;50.770;0.250;2023-02-16T13:46:29;10.77;;;2.87;;
5961;SDS011;3007;50.770;0.250;2023-02-16T13:48:58;10.30;;;3.00;;
5961;SDS011;3007;50.770;0.250;2023-02-16T13:51:26;8.53;;;2.60;;
5961;SDS011;3007;50.770;0.250;2023-02-16T13:54:05;6.70;;;2.67;;
5961;SDS011;3007;50.770;0.250;2023-02-16T13:56:33;5.27;;;2.73;;
5961;SDS011;3007;50.770;0.250;2023-02-16T14:05:34;12.77;;;2.87;;
5961;SDS011;3007;50.770;0.250;2023-02-16T14:08:10;8.97;;;2.80;;
5961;SDS011;3007;50.770;0.250;2023-02-16T14:10:56;9.30;;;2.67;;
5961;SDS011;3007;50.770;0.250;2023-02-16T14:13:47;11.43;;;3.17;;
5961;SDS011;3007;50.770;0.250;2023-02-16T14:19:15;6.00;;;2.37;;
5961;SDS011;3007;50.770;0.250;2023-02-16T14:21:45;5.90;;;2.03;;
5961;SDS011;3007;50.770;0.250;2023-02-16T14:24:22;8.83;;;1.77;;
5961;SDS011;3007;50.770;0.250;2023-02-16T14:26:54;5.13;;;1.93;;
5961;SDS011;3007;50.770;0.250;2023-02-16T14:29:26;6.37;;;1.80;;
5961;SDS011;3007;50.770;0.250;2023-02-16T14:31:57;8.20;;;2.07;;
5961;SDS011;3007;50.770;0.250;2023-02-16T14:34:27;7.77;;;2.13;;
5961;SDS011;3007;50.770;0.250;2023-02-16T14:40:17;9.27;;;2.03;;
5961;SDS011;3007;50.770;0.250;2023-02-16T14:42:50;7.87;;;2.57;;
5961;SDS011;3007;50.770;0.250;2023-02-16T14:45:36;11.57;;;2.63;;
5961;SDS011;3007;50.770;0.250;2023-02-16T14:48:27;6.43;;;2.50;;
5961;SDS011;3007;50.770;0.250;2023-02-16T14:51:15;10.30;;;2.90;;
5961;SDS011;3007;50.770;0.250;2023-02-16T14:54:07;8.10;;;2.47;;
5961;SDS011;3007;50.770;0.250;2023-02-16T14:56:50;9.80;;;3.27;;
5961;SDS011;3007;50.770;0.250;2023-02-16T14:59:23;9.03;;;2.40;;
5961;SDS011;3007;50.770;0.250;2023-02-16T15:01:55;5.60;;;2.13;;
5961;SDS011;3007;50.770;0.250;2023-02-16T15:04:26;11.77;;;2.03;;
5961;SDS011;3007;50.770;0.250;2023-02-16T15:06:54;6.43;;;1.67;;
5961;SDS011;3007;50.770;0.250;2023-02-16T15:09:24;5.67;;;3.60;;
5961;SDS011;3007;50.770;0.250;2023-02-16T15:11:57;7.23;;;3.37;;
5961;SDS011;3007;50.770;0.250;2023-02-16T15:14:45;5.00;;;2.13;;
5961;SDS011;3007;50.770;0.250;2023-02-16T15:17:17;8.83;;;2.93;;
5961;SDS011;3007;50.770;0.250;2023-02-16T15:19:51;6.03;;;2.87;;
5961;SDS011;3007;50.770;0.250;2023-02-16T15:22:21;9.40;;;4.83;;
5961;SDS011;3007;50.770;0.250;2023-02-16T15:24:53;6.80;;;3.37;;
5961;SDS011;3007;50.770;0.250;2023-02-16T15:27:23;4.60;;;2.07;;
5961;SDS011;3007;50.770;0.250;2023-02-16T15:30:04;9.73;;;2.07;;
5961;SDS011;3007;50.770;0.250;2023-02-16T15:32:34;4.07;;;1.77;;
5961;SDS011;3007;50.770;0.250;2023-02-16T15:35:08;4.57;;;2.10;;
5961;SDS011;3007;50.770;0.250;2023-02-16T15:37:36;6.47;;;2.20;;
5961;SDS011;3007;50.770;0.250;2023-02-16T15:40:10;3.23;;;1.60;;
5961;SDS011;3007;50.770;0.250;2023-02-16T15:42:41;3.87;;;1.80;;
5961;SDS011;3007;50.770;0.250;2023-02-16T15:45:25;5.07;;;1.97;;
5961;SDS011;3007;50.770;0.250;2023-02-16T15:50:39;5.17;;;1.50;;
5961;SDS011;3007;50.770;0.250;2023-02-16T15:53:09;9.13;;;1.47;;
5961;SDS011;3007;50.770;0.250;2023-02-16T15:55:40;6.53;;;1.57;;
5961;SDS011;3007;50.770;0.250;2023-02-16T15:58:10;8.83;;;1.90;;
5961;SDS011;3007;50.770;0.250;2023-02-16T16:00:40;7.20;;;2.03;;